sensor_id;sensor_type;location;lat;lon;timestamp;P1;durP1;ratioP1;P2;durP2;ratioP2
4971;SDS011;2501;51.214;6.768;2023-02-15T00:00:09;46.03;;;25.37;;
4971;SDS011;2501;51.214;6.768;2023-02-15T00:02:38;48.65;;;25.52;;
4971;SDS011;2501;51.214;6.768;2023-02-15T00:05:09;44.33;;;24.58;;
4971;SDS011;2501;51.214;6.768;2023-02-15T00:07:38;46.88;;;26.20;;
4971;SDS011;2501;51.214;6.768;2023-02-15T00:10:07;49.57;;;25.70;;
4971;SDS011;2501;51.214;6.768;2023-02-15T00:12:37;46.25;;;25.88;;
4971;SDS011;2501;51.214;6.768;2023-02-15T00:15:05;49.30;;;25.93;;
4971;SDS011;2501;51.214;6.768;2023-02-15T00:17:34;46.40;;;25.70;;
4971;SDS011;2501;51.214;6.768;2023-02-15T00:20:03;47.67;;;26.42;;
4971;SDS011;2501;51.214;6.768;2023-02-15T00:22:35;49.63;;;26.30;;
4971;SDS011;2501;51.214;6.768;2023-02-15T00:25:03;47.83;;;26.10;;
4971;SDS011;2501;51.214;6.768;2023-02-15T00:27:33;46.28;;;26.42;;
4971;SDS011;2501;51.214;6.768;2023-02-15T00:30:02;47.25;;;26.20;;
4971;SDS011;2501;51.214;6.768;2023-02-15T00:32:30;50.20;;;25.55;;
4971;SDS011;2501;51.214;6.768;2023-02-15T00:34:59;48.83;;;25.48;;
4971;SDS011;2501;51.214;6.768;2023-02-15T00:37:27;51.60;;;25.40;;
4971;SDS011;2501;51.214;6.768;2023-02-15T00:39:58;51.40;;;26.95;;
4971;SDS011;2501;51.214;6.768;2023-02-15T00:42:27;55.15;;;28.65;;
4971;SDS011;2501;51.214;6.768;2023-02-15T00:44:55;52.05;;;28.08;;
4971;SDS011;2501;51.214;6.768;2023-02-15T00:47:23;49.20;;;26.20;;
4971;SDS011;2501;51.214;6.768;2023-02-15T00:49:52;47.30;;;26.80;;
4971;SDS011;2501;51.214;6.768;2023-02-15T00:52:20;48.03;;;24.92;;
4971;SDS011;2501;51.214;6.768;2023-02-15T00:54:49;50.75;;;25.67;;
4971;SDS011;2501;51.214;6.768;2023-02-15T00:57:20;54.83;;;26.98;;
4971;SDS011;2501;51.214;6.768;2023-02-15T00:59:48;49.13;;;25.57;;
4971;SDS011;2501;51.214;6.768;2023-02-15T01:02:16;51.80;;;27.65;;
4971;SDS011;2501;51.214;6.768;2023-02-15T01:04:45;50.22;;;25.38;;
4971;SDS011;2501;51.214;6.768;2023-02-15T01:07:13;50.63;;;26.08;;
4971;SDS011;2501;51.214;6.768;2023-02-15T01:09:42;52.43;;;25.87;;
4971;SDS011;2501;51.214;6.768;2023-02-15T01:12:10;49.13;;;27.85;;
4971;SDS011;2501;51.214;6.768;2023-02-15T01:14:41;49.20;;;26.38;;
4971;SDS011;2501;51.214;6.768;2023-02-15T01:17:09;51.22;;;28.02;;
4971;SDS011;2501;51.214;6.768;2023-02-15T01:19:38;52.20;;;28.27;;
4971;SDS011;2501;51.214;6.768;2023-02-15T01:22:06;52.05;;;25.73;;
4971;SDS011;2501;51.214;6.768;2023-02-15T01:24:35;53.00;;;26.77;;
4971;SDS011;2501;51.214;6.768;2023-02-15T01:27:03;47.90;;;25.67;;
4971;SDS011;2501;51.214;6.768;2023-02-15T01:29:32;48.03;;;25.08;;
4971;SDS011;2501;51.214;6.768;2023-02-15T01:32:03;53.28;;;27.50;;
4971;SDS011;2501;51.214;6.768;2023-02-15T01:34:31;53.67;;;27.67;;
4971;SDS011;2501;51.214;6.768;2023-02-15T01:37:00;55.50;;;28.05;;
4971;SDS011;2501;51.214;6.768;2023-02-15T01:39:28;49.95;;;25.48;;
4971;SDS011;2501;51.214;6.768;2023-02-15T01:41:56;51.30;;;26.90;;
4971;SDS011;2501;51.214;6.768;2023-02-15T01:44:46;50.33;;;26.33;;
4971;SDS011;2501;51.214;6.768;2023-02-15T01:47:20;52.55;;;26.00;;
4971;SDS011;2501;51.214;6.768;2023-02-15T01:49:52;55.55;;;26.55;;
4971;SDS011;2501;51.214;6.768;2023-02-15T01:52:28;58.53;;;27.40;;
4971;SDS011;2501;51.214;6.768;2023-02-15T01:54:57;49.60;;;26.77;;
4971;SDS011;2501;51.214;6.768;2023-02-15T01:57:27;53.55;;;26.50;;
4971;SDS011;2501;51.214;6.768;2023-02-15T01:59:56;54.85;;;26.92;;
4971;SDS011;2501;51.214;6.768;2023-02-15T02:02:30;54.00;;;27.73;;
4971;SDS011;2501;51.214;6.768;2023-02-15T02:05:00;58.50;;;28.50;;
4971;SDS011;2501;51.214;6.768;2023-02-15T02:07:32;56.15;;;27.67;;
4971;SDS011;2501;51.214;6.768;2023-02-15T02:10:03;57.13;;;28.33;;
4971;SDS011;2501;51.214;6.768;2023-02-15T02:12:33;55.00;;;27.27;;
4971;SDS011;2501;51.214;6.768;2023-02-15T02:15:04;59.63;;;30.08;;
4971;SDS011;2501;51.214;6.768;2023-02-15T02:17:37;57.80;;;29.05;;
4971;SDS011;2501;51.214;6.768;2023-02-15T02:20:26;54.90;;;27.90;;
4971;SDS011;2501;51.214;6.768;2023-02-15T02:35:24;58.43;;;27.67;;
4971;SDS011;2501;51.214;6.768;2023-02-15T02:37:59;62.77;;;29.37;;
4971;SDS011;2501;51.214;6.768;2023-02-15T02:40:37;56.03;;;29.20;;
4971;SDS011;2501;51.214;6.768;2023-02-15T02:43:15;55.50;;;27.88;;
4971;SDS011;2501;51.214;6.768;2023-02-15T02:45:50;58.33;;;30.55;;
4971;SDS011;2501;51.214;6.768;2023-02-15T02:48:25;58.93;;;30.10;;
4971;SDS011;2501;51.214;6.768;2023-02-15T02:50:59;56.60;;;29.77;;
4971;SDS011;2501;51.214;6.768;2023-02-15T02:53:28;60.20;;;30.80;;
4971;SDS011;2501;51.214;6.768;2023-02-15T02:56:00;56.77;;;29.50;;
4971;SDS011;2501;51.214;6.768;2023-02-15T02:58:34;59.17;;;30.23;;
4971;SDS011;2501;51.214;6.768;2023-02-15T03:01:09;60.17;;;31.25;;
4971;SDS011;2501;51.214;6.768;2023-02-15T03:03:43;59.20;;;30.30;;
4971;SDS011;2501;51.214;6.768;2023-02-15T03:06:18;56.85;;;29.13;;
4971;SDS011;2501;51.214;6.768;2023-02-15T03:08:50;56.25;;;29.20;;
4971;SDS011;2501;51.214;6.768;2023-02-15T03:11:24;57.63;;;29.10;;
4971;SDS011;2501;51.214;6.768;2023-02-15T03:13:52;57.38;;;29.90;;
4971;SDS011;2501;51.214;6.768;2023-02-15T03:16:21;54.78;;;29.15;;
4971;SDS011;2501;51.214;6.768;2023-02-15T03:18:57;54.60;;;29.00;;
4971;SDS011;2501;51.214;6.768;2023-02-15T03:21:34;56.50;;;27.58;;
4971;SDS011;2501;51.214;6.768;2023-02-15T03:24:07;56.05;;;26.83;;
4971;SDS011;2501;51.214;6.768;2023-02-15T03:26:38;58.20;;;28.90;;
4971;SDS011;2501;51.214;6.768;2023-02-15T03:29:09;54.63;;;28.42;;
4971;SDS011;2501;51.214;6.768;2023-02-15T03:31:40;56.95;;;29.33;;
4971;SDS011;2501;51.214;6.768;2023-02-15T03:34:13;57.53;;;30.00;;
4971;SDS011;2501;51.214;6.768;2023-02-15T03:36:47;54.15;;;29.30;;
4971;SDS011;2501;51.214;6.768;2023-02-15T03:39:20;56.75;;;29.10;;
4971;SDS011;2501;51.214;6.768;2023-02-15T03:41:58;54.75;;;29.30;;
4971;SDS011;2501;51.214;6.768;2023-02-15T03:44:32;54.60;;;29.20;;
4971;SDS011;2501;51.214;6.768;2023-02-15T03:47:08;53.45;;;27.85;;
4971;SDS011;2501;51.214;6.768;2023-02-15T03:49:42;53.87;;;28.27;;
4971;SDS011;2501;51.214;6.768;2023-02-15T03:52:17;55.90;;;29.02;;
4971;SDS011;2501;51.214;6.768;2023-02-15T03:54:48;56.22;;;29.00;;
4971;SDS011;2501;51.214;6.768;2023-02-15T03:57:18;55.53;;;29.02;;
4971;SDS011;2501;51.214;6.768;2023-02-15T04:00:02;60.93;;;29.67;;
4971;SDS011;2501;51.214;6.768;2023-02-15T04:02:59;55.65;;;28.55;;
4971;SDS011;2501;51.214;6.768;2023-02-15T04:05:36;55.45;;;28.20;;
4971;SDS011;2501;51.214;6.768;2023-02-15T04:08:08;55.47;;;29.20;;
4971;SDS011;2501;51.214;6.768;2023-02-15T04:10:37;59.47;;;30.23;;
4971;SDS011;2501;51.214;6.768;2023-02-15T04:13:18;58.33;;;27.45;;
4971;SDS011;2501;51.214;6.768;2023-02-15T04:15:46;55.88;;;27.75;;
4971;SDS011;2501;51.214;6.768;2023-02-15T04:18:27;55.50;;;26.80;;
4971;SDS011;2501;51.214;6.768;2023-02-15T04:21:08;58.67;;;28.10;;
4971;SDS011;2501;51.214;6.768;2023-02-15T04:23:52;56.17;;;25.45;;
4971;SDS011;2501;51.214;6.768;2023-02-15T04:26:32;55.67;;;27.33;;
4971;SDS011;2501;51.214;6.768;2023-02-15T04:29:01;52.08;;;27.75;;
4971;SDS011;2501;51.214;6.768;2023-02-15T04:31:29;56.88;;;29.38;;
4971;SDS011;2501;51.214;6.768;2023-02-15T04:33:57;53.13;;;28.60;;
4971;SDS011;2501;51.214;6.768;2023-02-15T04:36:26;57.03;;;28.20;;
4971;SDS011;2501;51.214;6.768;2023-02-15T04:38:57;57.88;;;29.83;;
4971;SDS011;2501;51.214;6.768;2023-02-15T04:41:25;53.65;;;27.20;;
4971;SDS011;2501;51.214;6.768;2023-02-15T04:43:54;58.13;;;28.05;;
4971;SDS011;2501;51.214;6.768;2023-02-15T04:46:22;53.20;;;26.08;;
4971;SDS011;2501;51.214;6.768;2023-02-15T04:48:50;54.23;;;27.40;;
4971;SDS011;2501;51.214;6.768;2023-02-15T04:51:19;53.75;;;28.35;;
4971;SDS011;2501;51.214;6.768;2023-02-15T04:53:47;53.40;;;27.77;;
4971;SDS011;2501;51.214;6.768;2023-02-15T04:56:20;58.55;;;28.90;;
4971;SDS011;2501;51.214;6.768;2023-02-15T04:58:48;49.05;;;25.90;;
4971;SDS011;2501;51.214;6.768;2023-02-15T05:01:17;48.60;;;26.80;;
4971;SDS011;2501;51.214;6.768;2023-02-15T05:03:45;54.50;;;27.25;;
4971;SDS011;2501;51.214;6.768;2023-02-15T05:06:14;46.35;;;26.20;;
4971;SDS011;2501;51.214;6.768;2023-02-15T05:08:42;53.15;;;27.38;;
4971;SDS011;2501;51.214;6.768;2023-02-15T05:11:10;52.80;;;26.98;;
4971;SDS011;2501;51.214;6.768;2023-02-15T05:13:41;52.28;;;27.60;;
4971;SDS011;2501;51.214;6.768;2023-02-15T05:16:10;55.70;;;27.17;;
4971;SDS011;2501;51.214;6.768;2023-02-15T05:18:38;54.22;;;27.17;;
4971;SDS011;2501;51.214;6.768;2023-02-15T05:21:07;53.17;;;27.50;;
4971;SDS011;2501;51.214;6.768;2023-02-15T05:23:35;47.20;;;25.58;;
4971;SDS011;2501;51.214;6.768;2023-02-15T05:26:04;55.05;;;27.83;;
4971;SDS011;2501;51.214;6.768;2023-02-15T05:28:47;54.20;;;28.03;;
4971;SDS011;2501;51.214;6.768;2023-02-15T05:31:17;50.42;;;26.45;;
4971;SDS011;2501;51.214;6.768;2023-02-15T05:33:46;55.63;;;27.83;;
4971;SDS011;2501;51.214;6.768;2023-02-15T05:36:14;57.10;;;28.00;;
4971;SDS011;2501;51.214;6.768;2023-02-15T05:38:43;53.10;;;27.65;;
4971;SDS011;2501;51.214;6.768;2023-02-15T05:41:11;58.03;;;28.83;;
4971;SDS011;2501;51.214;6.768;2023-02-15T05:43:39;50.33;;;26.92;;
4971;SDS011;2501;51.214;6.768;2023-02-15T05:46:11;51.85;;;27.63;;
4971;SDS011;2501;51.214;6.768;2023-02-15T05:48:40;57.00;;;28.23;;
4971;SDS011;2501;51.214;6.768;2023-02-15T05:51:09;55.55;;;26.85;;
4971;SDS011;2501;51.214;6.768;2023-02-15T05:53:40;58.38;;;28.50;;
4971;SDS011;2501;51.214;6.768;2023-02-15T05:56:09;52.70;;;28.20;;
4971;SDS011;2501;51.214;6.768;2023-02-15T05:58:39;54.72;;;27.10;;
4971;SDS011;2501;51.214;6.768;2023-02-15T06:01:11;54.60;;;27.10;;
4971;SDS011;2501;51.214;6.768;2023-02-15T06:03:42;52.45;;;27.52;;
4971;SDS011;2501;51.214;6.768;2023-02-15T06:06:10;50.92;;;26.80;;
4971;SDS011;2501;51.214;6.768;2023-02-15T06:08:39;48.35;;;25.70;;
4971;SDS011;2501;51.214;6.768;2023-02-15T06:11:11;49.90;;;26.60;;
4971;SDS011;2501;51.214;6.768;2023-02-15T06:13:39;54.10;;;27.50;;
4971;SDS011;2501;51.214;6.768;2023-02-15T06:16:10;55.95;;;26.33;;
4971;SDS011;2501;51.214;6.768;2023-02-15T06:18:40;53.28;;;26.90;;
4971;SDS011;2501;51.214;6.768;2023-02-15T06:21:09;57.53;;;31.83;;
4971;SDS011;2501;51.214;6.768;2023-02-15T06:23:37;52.47;;;27.17;;
4971;SDS011;2501;51.214;6.768;2023-02-15T06:26:06;55.45;;;27.90;;
4971;SDS011;2501;51.214;6.768;2023-02-15T06:28:34;56.67;;;26.03;;
4971;SDS011;2501;51.214;6.768;2023-02-15T06:31:03;54.88;;;27.88;;
4971;SDS011;2501;51.214;6.768;2023-02-15T06:33:34;57.67;;;28.20;;
4971;SDS011;2501;51.214;6.768;2023-02-15T06:36:03;54.03;;;27.52;;
4971;SDS011;2501;51.214;6.768;2023-02-15T06:38:32;52.03;;;27.58;;
4971;SDS011;2501;51.214;6.768;2023-02-15T06:41:00;55.38;;;26.75;;
4971;SDS011;2501;51.214;6.768;2023-02-15T06:43:29;56.15;;;27.55;;
4971;SDS011;2501;51.214;6.768;2023-02-15T06:45:58;55.17;;;27.10;;
4971;SDS011;2501;51.214;6.768;2023-02-15T06:48:27;55.10;;;27.48;;
4971;SDS011;2501;51.214;6.768;2023-02-15T06:50:58;52.90;;;28.52;;
4971;SDS011;2501;51.214;6.768;2023-02-15T06:53:26;50.08;;;26.17;;
4971;SDS011;2501;51.214;6.768;2023-02-15T06:55:59;56.38;;;28.60;;
4971;SDS011;2501;51.214;6.768;2023-02-15T06:58:31;54.08;;;27.13;;
4971;SDS011;2501;51.214;6.768;2023-02-15T07:01:00;55.75;;;26.60;;
4971;SDS011;2501;51.214;6.768;2023-02-15T07:03:28;53.28;;;26.95;;
4971;SDS011;2501;51.214;6.768;2023-02-15T07:06:00;48.17;;;25.40;;
4971;SDS011;2501;51.214;6.768;2023-02-15T07:08:33;53.60;;;26.65;;
4971;SDS011;2501;51.214;6.768;2023-02-15T07:11:02;57.92;;;28.20;;
4971;SDS011;2501;51.214;6.768;2023-02-15T07:13:43;49.03;;;25.93;;
4971;SDS011;2501;51.214;6.768;2023-02-15T07:16:11;46.97;;;24.67;;
4971;SDS011;2501;51.214;6.768;2023-02-15T07:18:40;48.60;;;25.63;;
4971;SDS011;2501;51.214;6.768;2023-02-15T07:21:11;49.53;;;26.75;;
4971;SDS011;2501;51.214;6.768;2023-02-15T07:23:40;47.70;;;24.70;;
4971;SDS011;2501;51.214;6.768;2023-02-15T07:26:08;51.30;;;25.73;;
4971;SDS011;2501;51.214;6.768;2023-02-15T07:28:36;45.80;;;24.42;;
4971;SDS011;2501;51.214;6.768;2023-02-15T07:31:05;52.85;;;26.65;;
4971;SDS011;2501;51.214;6.768;2023-02-15T07:33:34;48.72;;;24.67;;
4971;SDS011;2501;51.214;6.768;2023-02-15T07:36:03;50.70;;;25.20;;
4971;SDS011;2501;51.214;6.768;2023-02-15T07:38:37;48.40;;;25.60;;
4971;SDS011;2501;51.214;6.768;2023-02-15T07:41:08;45.92;;;24.98;;
4971;SDS011;2501;51.214;6.768;2023-02-15T07:43:38;47.50;;;24.30;;
4971;SDS011;2501;51.214;6.768;2023-02-15T07:46:12;46.20;;;24.42;;
4971;SDS011;2501;51.214;6.768;2023-02-15T07:48:43;47.67;;;24.23;;
4971;SDS011;2501;51.214;6.768;2023-02-15T07:51:12;48.08;;;23.58;;
4971;SDS011;2501;51.214;6.768;2023-02-15T07:53:43;40.63;;;22.10;;
4971;SDS011;2501;51.214;6.768;2023-02-15T07:56:13;43.55;;;23.50;;
4971;SDS011;2501;51.214;6.768;2023-02-15T07:58:42;45.00;;;23.40;;
4971;SDS011;2501;51.214;6.768;2023-02-15T08:01:21;43.45;;;23.15;;
4971;SDS011;2501;51.214;6.768;2023-02-15T08:03:52;37.42;;;21.77;;
4971;SDS011;2501;51.214;6.768;2023-02-15T08:06:21;46.15;;;23.17;;
4971;SDS011;2501;51.214;6.768;2023-02-15T08:08:54;38.92;;;21.55;;
4971;SDS011;2501;51.214;6.768;2023-02-15T08:11:23;39.53;;;22.35;;
4971;SDS011;2501;51.214;6.768;2023-02-15T08:13:54;36.60;;;21.52;;
4971;SDS011;2501;51.214;6.768;2023-02-15T08:16:25;41.67;;;21.77;;
4971;SDS011;2501;51.214;6.768;2023-02-15T08:18:55;40.38;;;21.48;;
4971;SDS011;2501;51.214;6.768;2023-02-15T08:21:25;36.47;;;20.50;;
4971;SDS011;2501;51.214;6.768;2023-02-15T08:23:58;37.25;;;19.27;;
4971;SDS011;2501;51.214;6.768;2023-02-15T08:26:27;38.80;;;21.30;;
4971;SDS011;2501;51.214;6.768;2023-02-15T08:28:57;39.78;;;20.95;;
4971;SDS011;2501;51.214;6.768;2023-02-15T08:31:26;35.10;;;20.17;;
4971;SDS011;2501;51.214;6.768;2023-02-15T08:33:55;33.75;;;19.50;;
4971;SDS011;2501;51.214;6.768;2023-02-15T08:36:25;34.65;;;20.95;;
4971;SDS011;2501;51.214;6.768;2023-02-15T08:38:59;38.58;;;20.63;;
4971;SDS011;2501;51.214;6.768;2023-02-15T08:41:30;36.77;;;20.93;;
4971;SDS011;2501;51.214;6.768;2023-02-15T08:44:01;34.90;;;20.73;;
4971;SDS011;2501;51.214;6.768;2023-02-15T08:46:32;38.60;;;21.08;;
4971;SDS011;2501;51.214;6.768;2023-02-15T08:49:02;36.10;;;20.73;;
4971;SDS011;2501;51.214;6.768;2023-02-15T08:51:31;35.63;;;20.67;;
4971;SDS011;2501;51.214;6.768;2023-02-15T08:54:04;33.45;;;19.70;;
4971;SDS011;2501;51.214;6.768;2023-02-15T08:56:36;34.00;;;20.55;;
4971;SDS011;2501;51.214;6.768;2023-02-15T08:59:06;35.00;;;20.43;;
4971;SDS011;2501;51.214;6.768;2023-02-15T09:01:35;41.88;;;21.67;;
4971;SDS011;2501;51.214;6.768;2023-02-15T09:04:05;38.50;;;20.40;;
4971;SDS011;2501;51.214;6.768;2023-02-15T09:06:38;40.38;;;21.30;;
4971;SDS011;2501;51.214;6.768;2023-02-15T09:09:11;39.65;;;21.77;;
4971;SDS011;2501;51.214;6.768;2023-02-15T09:11:40;39.42;;;22.42;;
4971;SDS011;2501;51.214;6.768;2023-02-15T09:14:11;35.60;;;21.80;;
4971;SDS011;2501;51.214;6.768;2023-02-15T09:16:41;38.25;;;20.65;;
4971;SDS011;2501;51.214;6.768;2023-02-15T09:19:14;37.88;;;20.90;;
4971;SDS011;2501;51.214;6.768;2023-02-15T09:21:43;37.08;;;21.33;;
4971;SDS011;2501;51.214;6.768;2023-02-15T09:24:15;37.60;;;21.48;;
4971;SDS011;2501;51.214;6.768;2023-02-15T09:26:45;36.30;;;21.13;;
4971;SDS011;2501;51.214;6.768;2023-02-15T09:29:15;36.95;;;21.48;;
4971;SDS011;2501;51.214;6.768;2023-02-15T09:31:45;37.72;;;21.30;;
4971;SDS011;2501;51.214;6.768;2023-02-15T09:34:15;40.40;;;22.00;;
4971;SDS011;2501;51.214;6.768;2023-02-15T09:36:46;36.40;;;20.13;;
4971;SDS011;2501;51.214;6.768;2023-02-15T09:39:19;36.28;;;20.63;;
4971;SDS011;2501;51.214;6.768;2023-02-15T09:41:59;30.70;;;18.60;;
4971;SDS011;2501;51.214;6.768;2023-02-15T09:44:59;36.05;;;20.17;;
4971;SDS011;2501;51.214;6.768;2023-02-15T09:47:44;33.28;;;19.20;;
4971;SDS011;2501;51.214;6.768;2023-02-15T09:50:25;34.08;;;19.65;;
4971;SDS011;2501;51.214;6.768;2023-02-15T09:53:09;34.80;;;19.13;;
4971;SDS011;2501;51.214;6.768;2023-02-15T09:55:56;33.20;;;18.10;;
4971;SDS011;2501;51.214;6.768;2023-02-15T09:58:33;33.05;;;18.83;;
4971;SDS011;2501;51.214;6.768;2023-02-15T10:01:12;30.90;;;18.30;;
4971;SDS011;2501;51.214;6.768;2023-02-15T10:03:56;30.60;;;18.17;;
4971;SDS011;2501;51.214;6.768;2023-02-15T10:06:38;31.20;;;17.50;;
4971;SDS011;2501;51.214;6.768;2023-02-15T10:09:17;31.02;;;18.33;;
4971;SDS011;2501;51.214;6.768;2023-02-15T10:12:05;27.83;;;17.65;;
4971;SDS011;2501;51.214;6.768;2023-02-15T10:14:51;30.95;;;17.48;;
4971;SDS011;2501;51.214;6.768;2023-02-15T10:17:33;29.38;;;17.10;;
4971;SDS011;2501;51.214;6.768;2023-02-15T10:20:17;29.70;;;16.88;;
4971;SDS011;2501;51.214;6.768;2023-02-15T10:22:58;28.27;;;16.70;;
4971;SDS011;2501;51.214;6.768;2023-02-15T10:25:49;26.13;;;16.67;;
4971;SDS011;2501;51.214;6.768;2023-02-15T10:28:29;30.35;;;17.90;;
4971;SDS011;2501;51.214;6.768;2023-02-15T10:31:12;31.75;;;17.70;;
4971;SDS011;2501;51.214;6.768;2023-02-15T10:33:51;29.30;;;17.08;;
4971;SDS011;2501;51.214;6.768;2023-02-15T10:36:35;28.50;;;17.08;;
4971;SDS011;2501;51.214;6.768;2023-02-15T10:39:18;28.08;;;16.95;;
4971;SDS011;2501;51.214;6.768;2023-02-15T10:41:54;28.02;;;16.70;;
4971;SDS011;2501;51.214;6.768;2023-02-15T10:44:36;30.45;;;17.67;;
4971;SDS011;2501;51.214;6.768;2023-02-15T10:47:28;36.08;;;18.88;;
4971;SDS011;2501;51.214;6.768;2023-02-15T10:50:12;30.77;;;17.63;;
4971;SDS011;2501;51.214;6.768;2023-02-15T10:52:52;30.58;;;17.10;;
4971;SDS011;2501;51.214;6.768;2023-02-15T10:55:31;28.15;;;16.20;;
4971;SDS011;2501;51.214;6.768;2023-02-15T10:58:11;30.98;;;18.65;;
4971;SDS011;2501;51.214;6.768;2023-02-15T11:00:57;36.20;;;19.52;;
4971;SDS011;2501;51.214;6.768;2023-02-15T11:03:40;33.90;;;18.73;;
4971;SDS011;2501;51.214;6.768;2023-02-15T11:06:19;35.78;;;18.60;;
4971;SDS011;2501;51.214;6.768;2023-02-15T11:08:49;29.92;;;17.15;;
4971;SDS011;2501;51.214;6.768;2023-02-15T11:11:21;31.17;;;18.25;;
4971;SDS011;2501;51.214;6.768;2023-02-15T11:13:56;33.08;;;17.05;;
4971;SDS011;2501;51.214;6.768;2023-02-15T11:16:30;29.67;;;16.75;;
4971;SDS011;2501;51.214;6.768;2023-02-15T11:19:03;30.15;;;17.30;;
4971;SDS011;2501;51.214;6.768;2023-02-15T11:21:38;30.50;;;17.92;;
4971;SDS011;2501;51.214;6.768;2023-02-15T11:24:12;33.63;;;17.73;;
4971;SDS011;2501;51.214;6.768;2023-02-15T11:26:44;29.60;;;17.02;;
4971;SDS011;2501;51.214;6.768;2023-02-15T11:29:18;28.50;;;16.57;;
4971;SDS011;2501;51.214;6.768;2023-02-15T11:31:56;30.13;;;16.40;;
4971;SDS011;2501;51.214;6.768;2023-02-15T11:34:31;27.50;;;15.98;;
4971;SDS011;2501;51.214;6.768;2023-02-15T11:37:05;27.90;;;16.83;;
4971;SDS011;2501;51.214;6.768;2023-02-15T11:39:37;26.33;;;16.23;;
4971;SDS011;2501;51.214;6.768;2023-02-15T11:42:06;29.30;;;16.80;;
4971;SDS011;2501;51.214;6.768;2023-02-15T11:44:41;29.35;;;16.33;;
4971;SDS011;2501;51.214;6.768;2023-02-15T11:47:21;26.50;;;14.80;;
4971;SDS011;2501;51.214;6.768;2023-02-15T11:49:49;30.65;;;16.60;;
4971;SDS011;2501;51.214;6.768;2023-02-15T11:52:18;27.17;;;15.80;;
4971;SDS011;2501;51.214;6.768;2023-02-15T11:54:47;25.98;;;15.50;;
4971;SDS011;2501;51.214;6.768;2023-02-15T11:57:19;26.65;;;16.08;;
4971;SDS011;2501;51.214;6.768;2023-02-15T11:59:55;27.63;;;16.17;;
4971;SDS011;2501;51.214;6.768;2023-02-15T12:02:35;26.08;;;15.38;;
4971;SDS011;2501;51.214;6.768;2023-02-15T12:05:09;26.40;;;16.08;;
4971;SDS011;2501;51.214;6.768;2023-02-15T12:07:44;24.90;;;15.45;;
4971;SDS011;2501;51.214;6.768;2023-02-15T12:10:17;27.77;;;16.02;;
4971;SDS011;2501;51.214;6.768;2023-02-15T12:12:54;34.10;;;19.58;;
4971;SDS011;2501;51.214;6.768;2023-02-15T12:15:37;27.20;;;16.08;;
4971;SDS011;2501;51.214;6.768;2023-02-15T12:18:20;24.48;;;14.90;;
4971;SDS011;2501;51.214;6.768;2023-02-15T12:21:00;24.27;;;15.18;;
4971;SDS011;2501;51.214;6.768;2023-02-15T12:23:32;44.25;;;24.95;;
4971;SDS011;2501;51.214;6.768;2023-02-15T12:26:01;25.80;;;15.63;;
4971;SDS011;2501;51.214;6.768;2023-02-15T12:28:31;28.30;;;16.40;;
4971;SDS011;2501;51.214;6.768;2023-02-15T12:31:03;28.90;;;17.73;;
4971;SDS011;2501;51.214;6.768;2023-02-15T12:33:41;22.85;;;14.50;;
4971;SDS011;2501;51.214;6.768;2023-02-15T12:36:12;31.13;;;15.88;;
4971;SDS011;2501;51.214;6.768;2023-02-15T12:39:00;34.80;;;16.35;;
4971;SDS011;2501;51.214;6.768;2023-02-15T12:41:31;25.95;;;15.40;;
4971;SDS011;2501;51.214;6.768;2023-02-15T12:44:04;29.27;;;16.70;;
4971;SDS011;2501;51.214;6.768;2023-02-15T12:46:35;26.83;;;15.07;;
4971;SDS011;2501;51.214;6.768;2023-02-15T12:49:11;24.85;;;15.00;;
4971;SDS011;2501;51.214;6.768;2023-02-15T12:51:46;30.15;;;15.68;;
4971;SDS011;2501;51.214;6.768;2023-02-15T12:54:21;27.75;;;15.40;;
4971;SDS011;2501;51.214;6.768;2023-02-15T12:56:57;26.35;;;15.73;;
4971;SDS011;2501;51.214;6.768;2023-02-15T12:59:26;26.33;;;14.88;;
4971;SDS011;2501;51.214;6.768;2023-02-15T13:01:55;23.88;;;14.85;;
4971;SDS011;2501;51.214;6.768;2023-02-15T13:04:30;25.38;;;14.82;;
4971;SDS011;2501;51.214;6.768;2023-02-15T13:06:59;22.70;;;13.75;;
4971;SDS011;2501;51.214;6.768;2023-02-15T13:09:35;27.13;;;15.02;;
4971;SDS011;2501;51.214;6.768;2023-02-15T13:12:10;25.73;;;15.63;;
4971;SDS011;2501;51.214;6.768;2023-02-15T13:14:47;28.33;;;14.82;;
4971;SDS011;2501;51.214;6.768;2023-02-15T13:17:20;25.63;;;16.47;;
4971;SDS011;2501;51.214;6.768;2023-02-15T13:19:57;28.20;;;15.30;;
4971;SDS011;2501;51.214;6.768;2023-02-15T13:22:31;24.75;;;14.93;;
4971;SDS011;2501;51.214;6.768;2023-02-15T13:25:09;29.95;;;15.10;;
4971;SDS011;2501;51.214;6.768;2023-02-15T13:27:42;24.20;;;14.85;;
4971;SDS011;2501;51.214;6.768;2023-02-15T13:30:22;24.83;;;15.10;;
4971;SDS011;2501;51.214;6.768;2023-02-15T13:32:54;26.60;;;14.40;;
4971;SDS011;2501;51.214;6.768;2023-02-15T13:35:33;26.95;;;14.60;;
4971;SDS011;2501;51.214;6.768;2023-02-15T13:38:13;25.33;;;14.50;;
4971;SDS011;2501;51.214;6.768;2023-02-15T13:40:58;19.50;;;12.93;;
4971;SDS011;2501;51.214;6.768;2023-02-15T13:43:35;24.73;;;13.82;;
4971;SDS011;2501;51.214;6.768;2023-02-15T13:46:21;30.73;;;14.55;;
4971;SDS011;2501;51.214;6.768;2023-02-15T13:49:01;24.60;;;13.10;;
4971;SDS011;2501;51.214;6.768;2023-02-15T13:51:48;21.23;;;13.45;;
4971;SDS011;2501;51.214;6.768;2023-02-15T13:57:38;31.52;;;13.27;;
4971;SDS011;2501;51.214;6.768;2023-02-15T14:00:17;27.70;;;12.68;;
4971;SDS011;2501;51.214;6.768;2023-02-15T14:02:56;25.02;;;12.80;;
4971;SDS011;2501;51.214;6.768;2023-02-15T14:06:00;25.23;;;13.40;;
4971;SDS011;2501;51.214;6.768;2023-02-15T14:08:43;29.85;;;14.27;;
4971;SDS011;2501;51.214;6.768;2023-02-15T14:11:24;30.02;;;14.40;;
4971;SDS011;2501;51.214;6.768;2023-02-15T14:14:05;28.58;;;14.50;;
4971;SDS011;2501;51.214;6.768;2023-02-15T14:16:51;28.60;;;14.25;;
4971;SDS011;2501;51.214;6.768;2023-02-15T14:19:28;29.38;;;13.32;;
4971;SDS011;2501;51.214;6.768;2023-02-15T14:22:06;25.67;;;12.82;;
4971;SDS011;2501;51.214;6.768;2023-02-15T14:24:46;27.00;;;13.00;;
4971;SDS011;2501;51.214;6.768;2023-02-15T14:27:24;22.67;;;12.80;;
4971;SDS011;2501;51.214;6.768;2023-02-15T14:30:12;25.20;;;13.45;;
4971;SDS011;2501;51.214;6.768;2023-02-15T14:32:47;23.73;;;13.00;;
4971;SDS011;2501;51.214;6.768;2023-02-15T14:35:20;23.48;;;13.15;;
4971;SDS011;2501;51.214;6.768;2023-02-15T14:37:53;22.48;;;12.88;;
4971;SDS011;2501;51.214;6.768;2023-02-15T14:40:36;26.45;;;13.50;;
4971;SDS011;2501;51.214;6.768;2023-02-15T14:43:24;24.63;;;13.27;;
4971;SDS011;2501;51.214;6.768;2023-02-15T14:46:03;23.20;;;13.15;;
4971;SDS011;2501;51.214;6.768;2023-02-15T14:48:38;26.63;;;13.77;;
4971;SDS011;2501;51.214;6.768;2023-02-15T14:51:10;26.67;;;14.30;;
4971;SDS011;2501;51.214;6.768;2023-02-15T14:53:58;27.10;;;14.82;;
4971;SDS011;2501;51.214;6.768;2023-02-15T14:56:29;29.10;;;14.13;;
4971;SDS011;2501;51.214;6.768;2023-02-15T15:01:52;22.85;;;13.07;;
4971;SDS011;2501;51.214;6.768;2023-02-15T15:04:26;23.07;;;13.60;;
4971;SDS011;2501;51.214;6.768;2023-02-15T15:06:59;27.63;;;14.30;;
4971;SDS011;2501;51.214;6.768;2023-02-15T15:09:32;25.35;;;14.68;;
4971;SDS011;2501;51.214;6.768;2023-02-15T15:12:18;31.25;;;14.80;;
4971;SDS011;2501;51.214;6.768;2023-02-15T15:15:05;27.70;;;15.50;;
4971;SDS011;2501;51.214;6.768;2023-02-15T15:26:23;29.90;;;14.35;;
4971;SDS011;2501;51.214;6.768;2023-02-15T15:29:03;25.33;;;13.75;;
4971;SDS011;2501;51.214;6.768;2023-02-15T15:31:43;30.17;;;15.35;;
4971;SDS011;2501;51.214;6.768;2023-02-15T15:34:28;26.17;;;14.20;;
4971;SDS011;2501;51.214;6.768;2023-02-15T15:46:16;27.25;;;14.68;;
4971;SDS011;2501;51.214;6.768;2023-02-15T15:48:59;29.88;;;15.43;;
4971;SDS011;2501;51.214;6.768;2023-02-15T15:51:29;34.77;;;18.73;;
4971;SDS011;2501;51.214;6.768;2023-02-15T15:54:01;35.10;;;18.20;;
4971;SDS011;2501;51.214;6.768;2023-02-15T15:56:31;33.80;;;17.98;;
4971;SDS011;2501;51.214;6.768;2023-02-15T15:59:04;30.90;;;16.23;;
4971;SDS011;2501;51.214;6.768;2023-02-15T16:01:38;26.25;;;14.52;;